Time;durP1;ratioP1;P1;durP2;ratioP2;P2;SDS_P1;SDS_P2;PMS_P1;PMS_P2;Temp;Humidity;BMP_temperature;BMP_pressure;BME280_temperature;BME280_humidity;BME280_pressure;Samples;Min_cycle;Max_cycle;Signal;HPM_P1;HPM_P2
2020/12/28 05:01:35;;;;;;;0.63;0.63;;;5.40;99.90;;;;;;5424555;23;20617;-65
2020/12/28 05:04:02;;;;;;;0.60;0.60;;;5.30;99.90;;;;;;4975416;28;20455;-65
2020/12/28 05:06:28;;;;;;;0.70;0.70;;;5.30;99.90;;;;;;4975111;28;20481;-65
2020/12/28 05:08:54;;;;;;;0.70;0.70;;;5.30;99.90;;;;;;4975441;28;20455;-65
2020/12/28 05:11:21;;;;;;;0.60;0.50;;;5.40;99.90;;;;;;4978509;28;20474;-65
2020/12/28 05:13:48;;;;;;;1.23;0.67;;;5.40;99.90;;;;;;4978898;28;20478;-65
2020/12/28 05:16:14;;;;;;;0.50;0.50;;;5.30;99.90;;;;;;4979003;28;20459;-64
2020/12/28 05:18:41;;;;;;;0.60;0.60;;;5.30;99.90;;;;;;4979010;28;20450;-65
2020/12/28 05:21:08;;;;;;;3.13;0.53;;;5.30;99.90;;;;;;4978645;28;20493;-65
2020/12/28 05:23:34;;;;;;;0.60;0.60;;;5.30;99.90;;;;;;4978751;28;20504;-65
2020/12/28 05:26:05;;;;;;;0.50;0.50;;;5.30;99.90;;;;;;4978444;28;20458;-64
2020/12/28 05:28:36;;;;;;;1.07;0.63;;;5.40;99.90;;;;;;4978035;28;20929;-64
2020/12/28 05:31:03;;;;;;;0.80;0.80;;;5.40;99.90;;;;;;4978392;28;20474;-64
2020/12/28 05:33:32;;;;;;;1.63;0.70;;;5.50;99.90;;;;;;4978762;28;20482;-64
2020/12/28 05:35:59;;;;;;;2.83;0.70;;;5.40;99.90;;;;;;4978215;28;20509;-65
2020/12/28 05:38:26;;;;;;;0.70;0.70;;;5.50;99.90;;;;;;4978257;28;20462;-63
2020/12/28 05:41:02;;;;;;;0.50;0.50;;;5.40;99.90;;;;;;4978183;28;20481;-63
2020/12/28 05:43:29;;;;;;;0.70;0.70;;;5.50;99.90;;;;;;4978293;28;20528;-64
2020/12/28 05:45:55;;;;;;;0.70;0.70;;;5.50;99.90;;;;;;4978491;28;20458;-65
2020/12/28 05:48:23;;;;;;;0.73;0.70;;;5.50;99.90;;;;;;4977888;28;20458;-65
2020/12/28 05:50:55;;;;;;;1.00;1.00;;;5.50;99.90;;;;;;4978704;28;20475;-63
2020/12/28 05:53:24;;;;;;;0.70;0.70;;;5.40;99.90;;;;;;4978728;28;20553;-63
2020/12/28 05:55:51;;;;;;;0.70;0.70;;;5.30;99.90;;;;;;4979130;28;20486;-64
2020/12/28 05:58:19;;;;;;;0.97;0.73;;;5.30;99.90;;;;;;4978125;28;20798;-64
2020/12/28 06:00:48;;;;;;;0.70;0.70;;;5.30;99.90;;;;;;4978474;28;20541;-65
2020/12/28 06:03:23;;;;;;;0.70;0.70;;;5.40;99.90;;;;;;4977808;28;20504;-65
2020/12/28 06:05:52;;;;;;;1.20;0.57;;;5.30;99.90;;;;;;4977998;28;20446;-64
2020/12/28 06:08:18;;;;;;;0.77;0.77;;;5.40;99.90;;;;;;4977859;28;20461;-64
2020/12/28 06:10:45;;;;;;;0.80;0.80;;;5.30;99.90;;;;;;4977993;28;20478;-64
2020/12/28 06:13:20;;;;;;;0.70;0.70;;;5.30;99.90;;;;;;4977749;28;20458;-66
2020/12/28 06:16:01;;;;;;;1.00;0.90;;;5.20;99.90;;;;;;4977730;28;20877;-65
2020/12/28 06:18:27;;;;;;;1.17;0.80;;;5.20;99.90;;;;;;4977754;28;20479;-68
2020/12/28 06:20:53;;;;;;;1.43;1.43;;;5.20;99.90;;;;;;4976964;28;20484;-64
2020/12/28 06:23:26;;;;;;;0.80;0.80;;;5.20;99.90;;;;;;4976881;28;21053;-64
2020/12/28 06:25:53;;;;;;;0.70;0.70;;;5.30;99.90;;;;;;4977649;28;20462;-65
2020/12/28 06:28:24;;;;;;;0.50;0.50;;;5.30;99.90;;;;;;4977431;28;20942;-65
2020/12/28 06:30:50;;;;;;;0.70;0.70;;;5.40;99.90;;;;;;4977502;28;20478;-65
2020/12/28 06:33:17;;;;;;;0.70;0.70;;;5.30;99.90;;;;;;4977077;28;20949;-64
2020/12/28 06:35:44;;;;;;;1.80;1.40;;;5.30;99.90;;;;;;4977652;28;20459;-65
2020/12/28 06:38:10;;;;;;;0.60;0.60;;;5.40;99.90;;;;;;4977361;28;20466;-65
2020/12/28 06:40:38;;;;;;;0.70;0.70;;;5.50;99.90;;;;;;4977435;28;20530;-65
2020/12/28 06:43:12;;;;;;;0.60;0.60;;;5.40;99.90;;;;;;4977345;28;20459;-65
2020/12/28 06:45:39;;;;;;;0.80;0.80;;;5.30;99.90;;;;;;4977437;28;20443;-65
2020/12/28 06:48:15;;;;;;;0.70;0.70;;;5.30;99.90;;;;;;4976886;28;20945;-64
2020/12/28 06:50:41;;;;;;;0.70;0.70;;;5.30;99.90;;;;;;4976996;28;20482;-65
2020/12/28 06:53:08;;;;;;;1.80;1.00;;;5.30;99.90;;;;;;4977035;28;20455;-65
2020/12/28 06:55:34;;;;;;;1.73;1.63;;;5.20;99.90;;;;;;4977514;28;20945;-65
2020/12/28 06:58:01;;;;;;;1.90;1.33;;;5.20;99.90;;;;;;4977282;28;20705;-65
2020/12/28 07:00:28;;;;;;;1.03;0.90;;;5.10;99.90;;;;;;4976717;28;20497;-66
2020/12/28 07:02:56;;;;;;;0.97;0.97;;;5.10;99.90;;;;;;4976900;28;20803;-63
2020/12/28 07:05:23;;;;;;;0.90;0.90;;;5.20;99.90;;;;;;4976405;28;20937;-63
2020/12/28 07:07:50;;;;;;;0.70;0.70;;;5.10;99.90;;;;;;4976802;28;20477;-63
2020/12/28 07:10:17;;;;;;;0.83;0.83;;;5.10;99.90;;;;;;4976352;28;20450;-66
2020/12/28 07:12:44;;;;;;;1.07;1.00;;;5.00;99.90;;;;;;4977458;28;20455;-65
2020/12/28 07:15:10;;;;;;;1.13;1.13;;;5.00;99.90;;;;;;4976893;28;20482;-65
2020/12/28 07:17:37;;;;;;;0.83;0.83;;;5.10;99.90;;;;;;4976720;28;20497;-63
2020/12/28 07:20:08;;;;;;;0.70;0.70;;;5.00;99.90;;;;;;4976764;28;20454;-64
2020/12/28 07:22:35;;;;;;;0.70;0.70;;;5.00;99.90;;;;;;4976913;28;20475;-65
2020/12/28 07:25:02;;;;;;;0.80;0.80;;;5.00;99.90;;;;;;4976358;28;20469;-65
2020/12/28 07:27:28;;;;;;;1.40;0.70;;;5.00;99.90;;;;;;4975970;28;20459;-63
2020/12/28 07:29:54;;;;;;;1.00;1.00;;;5.00;99.90;;;;;;4975798;28;20964;-63
2020/12/28 07:32:20;;;;;;;0.80;0.77;;;5.00;99.90;;;;;;4975392;28;20993;-63
2020/12/28 07:34:53;;;;;;;1.37;1.10;;;5.00;99.90;;;;;;4975632;28;20509;-65
2020/12/28 07:37:19;;;;;;;1.27;0.60;;;5.10;99.90;;;;;;4976282;28;20494;-62
2020/12/28 07:39:47;;;;;;;0.97;0.80;;;5.00;99.90;;;;;;4975958;28;20525;-64
2020/12/28 07:42:18;;;;;;;0.70;0.70;;;5.30;99.90;;;;;;4975468;28;20997;-64
2020/12/28 07:44:52;;;;;;;1.03;0.80;;;5.40;99.90;;;;;;4975796;28;20443;-65
2020/12/28 07:47:21;;;;;;;0.90;0.90;;;5.60;99.90;;;;;;4975820;28;20475;-64
2020/12/28 07:49:49;;;;;;;1.13;1.03;;;5.40;99.90;;;;;;4975687;28;20828;-64
2020/12/28 07:52:22;;;;;;;1.23;1.17;;;5.40;99.90;;;;;;4975543;28;20503;-65
2020/12/28 07:54:56;;;;;;;0.70;0.70;;;5.50;99.90;;;;;;4975407;28;20466;-65
2020/12/28 07:57:30;;;;;;;1.07;1.07;;;5.40;99.90;;;;;;4975892;28;20909;-65
2020/12/28 08:00:05;;;;;;;1.20;1.10;;;5.30;99.90;;;;;;4975700;28;20443;-65
2020/12/28 08:02:49;;;;;;;1.80;1.07;;;5.20;99.90;;;;;;4975289;28;20904;-65
2020/12/28 08:05:19;;;;;;;2.10;1.50;;;5.10;99.90;;;;;;4975531;28;20450;-65
2020/12/28 08:07:46;;;;;;;1.60;1.27;;;5.10;99.90;;;;;;4975331;28;20937;-65
2020/12/28 08:10:12;;;;;;;1.27;1.17;;;5.00;99.90;;;;;;4975085;28;20450;-64
2020/12/28 08:12:41;;;;;;;1.33;1.33;;;4.90;99.90;;;;;;4975421;28;20461;-65
2020/12/28 08:15:08;;;;;;;2.50;1.10;;;4.90;99.90;;;;;;4975221;28;20474;-64
2020/12/28 08:17:34;;;;;;;2.57;1.50;;;5.00;99.90;;;;;;4975026;28;20825;-64
2020/12/28 08:20:12;;;;;;;1.47;1.10;;;5.00;99.90;;;;;;4975176;28;20458;-64
2020/12/28 08:22:38;;;;;;;1.50;1.40;;;5.00;99.90;;;;;;4975214;28;20454;-65
2020/12/28 08:25:06;;;;;;;2.90;1.53;;;5.00;99.90;;;;;;4975342;28;20454;-65
2020/12/28 08:27:33;;;;;;;1.50;1.27;;;5.00;99.90;;;;;;4975264;28;20491;-65
2020/12/28 08:30:00;;;;;;;1.40;1.10;;;5.00;99.90;;;;;;4974879;28;20462;-64
2020/12/28 08:32:27;;;;;;;1.20;1.20;;;4.90;99.90;;;;;;4974719;28;20533;-66
2020/12/28 08:34:55;;;;;;;2.70;2.50;;;5.00;99.90;;;;;;4975015;28;20505;-65
2020/12/28 08:37:22;;;;;;;1.30;1.30;;;5.10;99.90;;;;;;4975306;28;20454;-65
2020/12/28 08:39:48;;;;;;;1.43;1.43;;;5.20;99.90;;;;;;4976505;28;20797;-65
2020/12/28 08:42:26;;;;;;;1.50;1.20;;;5.30;99.90;;;;;;4975284;28;20483;-65
2020/12/28 08:44:52;;;;;;;1.10;1.00;;;5.30;99.90;;;;;;4976434;28;20439;-65
2020/12/28 08:47:18;;;;;;;1.13;1.13;;;5.20;99.90;;;;;;4979040;28;20466;-65
2020/12/28 08:49:48;;;;;;;1.30;1.20;;;5.20;99.90;;;;;;4978991;28;20443;-65
2020/12/28 08:52:15;;;;;;;1.00;1.00;;;5.20;99.90;;;;;;4978792;28;20517;-66
2020/12/28 08:54:42;;;;;;;1.10;1.10;;;5.10;99.90;;;;;;4979854;28;20463;-63
2020/12/28 08:57:19;;;;;;;1.00;0.90;;;5.10;99.90;;;;;;4978586;28;20447;-64
2020/12/28 08:59:45;;;;;;;5.00;2.53;;;5.10;99.90;;;;;;4978622;28;20474;-65
2020/12/28 09:02:15;;;;;;;1.73;0.97;;;5.10;99.90;;;;;;4978258;28;20498;-65
2020/12/28 09:04:42;;;;;;;0.67;0.67;;;5.00;99.90;;;;;;4979087;28;20471;-64
2020/12/28 09:07:08;;;;;;;0.80;0.80;;;5.10;99.90;;;;;;4978781;28;20462;-66
2020/12/28 09:09:34;;;;;;;1.10;0.80;;;5.10;99.90;;;;;;4978696;28;20454;-64
2020/12/28 09:12:00;;;;;;;0.80;0.80;;;5.10;99.90;;;;;;4978375;28;20474;-65
2020/12/28 09:14:27;;;;;;;3.33;1.40;;;5.30;99.90;;;;;;4982567;28;20574;-65
2020/12/28 09:16:53;;;;;;;0.90;0.90;;;5.30;99.90;;;;;;4979559;28;20454;-65
2020/12/28 09:19:20;;;;;;;1.00;1.00;;;5.30;99.90;;;;;;4978234;28;20941;-65
2020/12/28 09:21:46;;;;;;;0.90;0.90;;;5.40;99.90;;;;;;4978603;28;20467;-64
2020/12/28 09:24:12;;;;;;;1.13;1.13;;;5.20;99.90;;;;;;4979286;28;20447;-65
2020/12/28 09:26:38;;;;;;;0.80;0.80;;;5.20;99.90;;;;;;4979333;28;20459;-65
2020/12/28 09:29:04;;;;;;;0.73;0.73;;;5.10;99.90;;;;;;4978582;28;20462;-65
2020/12/28 09:31:31;;;;;;;2.20;1.10;;;5.00;99.90;;;;;;4978488;28;20471;-66
2020/12/28 09:33:58;;;;;;;1.30;0.70;;;5.00;99.90;;;;;;4978690;28;20482;-65
2020/12/28 09:36:24;;;;;;;1.60;0.70;;;5.00;99.90;;;;;;4979972;28;20454;-65
2020/12/28 09:38:50;;;;;;;1.00;1.00;;;5.00;99.90;;;;;;4981219;28;20450;-65
2020/12/28 09:41:16;;;;;;;1.00;1.00;;;5.00;99.90;;;;;;4980079;28;21059;-64
2020/12/28 09:43:43;;;;;;;1.50;1.40;;;5.00;99.90;;;;;;4980515;28;20455;-65
2020/12/28 09:46:10;;;;;;;1.10;1.10;;;5.00;99.90;;;;;;4981019;28;20462;-63
2020/12/28 09:48:39;;;;;;;1.87;1.47;;;5.00;99.90;;;;;;4984049;28;20463;-65
2020/12/28 09:51:07;;;;;;;1.10;1.10;;;5.00;99.90;;;;;;4984656;28;20498;-65
2020/12/28 09:53:33;;;;;;;2.77;1.30;;;5.10;99.90;;;;;;4982525;28;20969;-64
2020/12/28 09:56:01;;;;;;;1.00;1.00;;;5.10;99.90;;;;;;4978967;28;20459;-65
2020/12/28 09:58:28;;;;;;;1.20;1.20;;;5.20;99.90;;;;;;4979544;28;20458;-63
2020/12/28 10:00:54;;;;;;;1.43;1.30;;;5.20;99.90;;;;;;4979208;28;20498;-64
2020/12/28 10:03:20;;;;;;;1.23;1.23;;;5.20;99.90;;;;;;4978853;28;20461;-65
2020/12/28 10:05:47;;;;;;;1.07;1.03;;;5.20;99.90;;;;;;4978340;28;20450;-64
2020/12/28 10:08:13;;;;;;;2.23;1.93;;;5.20;99.90;;;;;;4978713;28;20458;-65
2020/12/28 10:10:39;;;;;;;1.50;1.37;;;5.30;99.90;;;;;;4979174;28;20475;-65
2020/12/28 10:13:05;;;;;;;1.70;1.30;;;5.30;99.90;;;;;;4978329;28;20482;-65
2020/12/28 10:15:32;;;;;;;1.10;1.10;;;5.40;99.90;;;;;;4978137;28;21059;-65
2020/12/28 10:18:27;;;;;;;1.50;1.40;;;5.40;99.90;;;;;;4979247;28;20450;-65
2020/12/28 10:20:54;;;;;;;1.20;1.10;;;5.50;99.90;;;;;;4970721;28;20993;-65
2020/12/28 10:23:20;;;;;;;1.40;1.40;;;5.50;99.90;;;;;;4979756;28;20460;-65
2020/12/28 10:25:46;;;;;;;1.40;1.40;;;5.60;99.90;;;;;;4979219;28;20455;-66
2020/12/28 10:28:12;;;;;;;1.63;1.30;;;5.70;99.90;;;;;;4978189;28;20465;-66
2020/12/28 10:30:38;;;;;;;1.70;1.60;;;5.70;99.90;;;;;;4978590;28;20591;-65
2020/12/28 10:33:05;;;;;;;1.80;1.70;;;5.70;99.90;;;;;;4979626;28;20458;-66
2020/12/28 10:35:31;;;;;;;2.00;1.90;;;5.70;99.90;;;;;;4979433;28;20483;-65
2020/12/28 10:37:58;;;;;;;2.07;1.97;;;5.70;99.90;;;;;;4979168;28;20450;-66
2020/12/28 10:40:24;;;;;;;3.37;1.70;;;5.60;99.90;;;;;;4978722;28;20454;-65
2020/12/28 10:42:50;;;;;;;1.70;1.60;;;5.70;99.90;;;;;;4978395;28;20468;-65
2020/12/28 10:45:16;;;;;;;2.10;2.00;;;5.60;99.90;;;;;;4978971;28;20451;-65
2020/12/28 10:47:43;;;;;;;2.10;1.83;;;5.70;99.90;;;;;;4978690;28;20450;-65
2020/12/28 10:50:09;;;;;;;2.50;2.30;;;5.60;99.90;;;;;;4978781;28;20967;-66
2020/12/28 10:52:35;;;;;;;2.37;2.27;;;5.60;99.90;;;;;;4979002;28;20485;-66
2020/12/28 10:55:02;;;;;;;3.00;2.20;;;5.60;99.90;;;;;;4979348;28;20474;-65
2020/12/28 10:57:28;;;;;;;2.20;2.10;;;5.60;99.90;;;;;;4980482;28;20458;-63
2020/12/28 10:59:54;;;;;;;2.80;2.60;;;5.60;99.90;;;;;;4980780;28;20455;-65
2020/12/28 11:02:21;;;;;;;2.47;2.37;;;5.50;99.90;;;;;;4980763;28;20496;-66
2020/12/28 11:04:47;;;;;;;2.40;2.30;;;5.50;99.90;;;;;;4981921;28;20457;-64
2020/12/28 11:07:13;;;;;;;2.90;2.67;;;5.50;99.90;;;;;;4981437;28;20443;-64
2020/12/28 11:09:39;;;;;;;3.30;2.80;;;5.60;99.90;;;;;;4980498;28;20786;-64
2020/12/28 11:12:06;;;;;;;3.50;3.30;;;5.50;99.90;;;;;;4979793;28;20485;-64
2020/12/28 11:14:32;;;;;;;2.90;2.70;;;5.60;99.90;;;;;;4980613;28;20478;-64
2020/12/28 11:17:01;;;;;;;3.17;2.93;;;5.60;99.90;;;;;;4980587;28;20454;-64
2020/12/28 11:19:27;;;;;;;2.93;2.73;;;5.60;99.90;;;;;;4979816;28;20455;-66
2020/12/28 11:21:53;;;;;;;3.67;3.47;;;5.80;99.90;;;;;;4979452;28;20471;-64
2020/12/28 11:24:20;;;;;;;3.03;2.83;;;5.70;99.90;;;;;;4979018;28;20451;-65
2020/12/28 11:26:46;;;;;;;3.47;3.27;;;5.80;99.90;;;;;;4978919;28;20482;-64
2020/12/28 11:29:13;;;;;;;3.47;3.27;;;5.80;99.90;;;;;;4978149;28;20465;-65
2020/12/28 11:31:39;;;;;;;3.40;3.20;;;5.90;99.90;;;;;;4978625;28;20475;-64
2020/12/28 11:34:05;;;;;;;3.63;3.33;;;5.90;99.90;;;;;;4979232;28;20483;-66
2020/12/28 11:36:32;;;;;;;3.30;3.10;;;5.90;99.90;;;;;;4978567;28;20458;-65
2020/12/28 11:38:59;;;;;;;3.53;3.33;;;6.00;99.90;;;;;;4977661;28;20553;-65
2020/12/28 11:41:27;;;;;;;4.83;3.50;;;6.00;99.90;;;;;;4977010;28;20516;-64
2020/12/28 11:43:53;;;;;;;3.73;3.30;;;6.00;99.90;;;;;;4976876;28;20451;-65
2020/12/28 11:46:20;;;;;;;4.03;3.73;;;6.10;99.90;;;;;;4976159;28;20461;-63
2020/12/28 11:48:47;;;;;;;5.00;4.60;;;6.20;99.90;;;;;;4976235;28;20454;-64
2020/12/28 11:51:14;;;;;;;4.33;3.93;;;6.30;99.90;;;;;;4976598;28;20833;-67
2020/12/28 11:53:40;;;;;;;4.63;4.23;;;6.30;99.90;;;;;;4977454;28;20514;-64
2020/12/28 11:56:12;;;;;;;6.40;4.87;;;6.20;99.90;;;;;;4977177;28;20459;-64
2020/12/28 11:58:39;;;;;;;4.80;4.40;;;6.20;99.90;;;;;;4977227;28;20439;-66
2020/12/28 12:01:11;;;;;;;6.90;4.80;;;6.10;99.90;;;;;;4976450;28;20482;-64
2020/12/28 12:03:39;;;;;;;7.83;5.23;;;6.10;99.90;;;;;;4976730;28;20506;-64
2020/12/28 12:06:05;;;;;;;4.93;4.03;;;6.00;99.90;;;;;;4977221;28;20463;-64
2020/12/28 12:08:31;;;;;;;5.10;4.60;;;6.00;99.90;;;;;;4976951;28;20803;-65
2020/12/28 12:10:57;;;;;;;4.53;4.23;;;6.00;99.90;;;;;;4976905;28;20479;-64
2020/12/28 12:13:24;;;;;;;4.40;4.00;;;6.00;99.90;;;;;;4976880;28;20439;-66
2020/12/28 12:15:52;;;;;;;4.50;4.20;;;5.90;99.90;;;;;;4978902;28;20486;-65
2020/12/28 12:18:18;;;;;;;4.40;4.10;;;6.00;99.90;;;;;;4978756;28;20455;-65
2020/12/28 12:20:45;;;;;;;3.73;3.50;;;6.10;99.90;;;;;;4977005;28;20474;-64
2020/12/28 12:23:11;;;;;;;3.90;3.50;;;6.30;99.90;;;;;;4978236;28;20545;-64
2020/12/28 12:25:38;;;;;;;4.13;3.60;;;6.30;99.90;;;;;;4977761;28;20451;-65
2020/12/28 12:28:04;;;;;;;4.17;3.70;;;6.40;99.90;;;;;;4978367;28;20462;-64
2020/12/28 12:30:30;;;;;;;4.10;3.80;;;6.30;99.90;;;;;;4978731;28;20458;-64
2020/12/28 12:32:59;;;;;;;4.07;3.77;;;6.20;99.90;;;;;;4977836;28;20913;-65
2020/12/28 12:35:26;;;;;;;4.20;3.90;;;6.20;99.90;;;;;;4975991;28;20489;-65
2020/12/28 12:37:53;;;;;;;4.40;4.10;;;6.20;99.90;;;;;;4976439;28;20469;-64
2020/12/28 12:40:19;;;;;;;4.90;4.50;;;6.10;99.90;;;;;;4977304;28;20443;-66
2020/12/28 12:42:45;;;;;;;4.70;4.30;;;6.10;99.90;;;;;;4976585;28;20806;-66
2020/12/28 12:45:11;;;;;;;4.50;4.20;;;6.10;99.90;;;;;;4976364;28;20463;-66
2020/12/28 12:47:37;;;;;;;5.97;3.83;;;6.20;99.90;;;;;;4977045;28;20457;-66
2020/12/28 12:50:04;;;;;;;4.67;4.33;;;6.20;99.90;;;;;;4976072;28;20443;-67
2020/12/28 12:52:31;;;;;;;6.50;4.40;;;6.10;99.90;;;;;;4976220;28;20577;-67
2020/12/28 12:54:58;;;;;;;6.97;4.20;;;6.10;99.90;;;;;;4975672;28;20479;-67
2020/12/28 12:57:26;;;;;;;4.07;3.87;;;6.10;99.90;;;;;;4975195;28;20941;-66
2020/12/28 13:00:02;;;;;;;10.67;9.57;;;6.10;99.90;;;;;;4975135;28;20442;-65
2020/12/28 13:02:28;;;;;;;3.70;3.50;;;6.10;99.90;;;;;;4974233;28;20517;-66
2020/12/28 13:04:54;;;;;;;4.70;3.60;;;5.90;99.90;;;;;;4975131;28;20431;-65
2020/12/28 13:07:21;;;;;;;3.83;3.60;;;5.90;99.90;;;;;;4975209;28;20454;-65
2020/12/28 13:09:47;;;;;;;4.00;3.70;;;5.80;99.90;;;;;;4974816;28;20454;-67
2020/12/28 13:12:14;;;;;;;3.00;2.83;;;5.80;99.90;;;;;;4975004;28;20485;-67
2020/12/28 13:14:40;;;;;;;3.43;2.37;;;5.80;99.90;;;;;;4974980;28;20529;-65
2020/12/28 13:17:06;;;;;;;2.70;2.60;;;5.70;99.90;;;;;;4975001;28;20458;-67
2020/12/28 13:19:32;;;;;;;2.93;2.73;;;5.80;99.90;;;;;;4974646;28;20970;-65
2020/12/28 13:21:59;;;;;;;4.83;2.87;;;5.80;99.90;;;;;;4974734;28;20475;-67
2020/12/28 13:24:25;;;;;;;3.47;3.17;;;5.90;99.90;;;;;;4975026;28;20455;-65
2020/12/28 13:26:51;;;;;;;4.03;3.73;;;6.00;99.90;;;;;;4974754;28;20528;-66
2020/12/28 13:29:18;;;;;;;4.27;3.90;;;6.10;99.90;;;;;;4975262;28;20940;-66
2020/12/28 13:31:48;;;;;;;3.17;2.93;;;6.20;99.90;;;;;;4977279;28;20478;-66
2020/12/28 13:34:14;;;;;;;2.60;2.50;;;6.30;99.90;;;;;;4978373;28;20470;-66
2020/12/28 13:36:44;;;;;;;3.73;2.27;;;6.30;99.90;;;;;;4978395;28;20455;-65
2020/12/28 13:39:10;;;;;;;1.90;1.80;;;6.30;99.90;;;;;;4978502;28;20509;-65
2020/12/28 13:41:36;;;;;;;2.70;2.40;;;6.30;99.90;;;;;;4978306;28;20483;-65
2020/12/28 13:44:02;;;;;;;1.90;1.80;;;6.30;99.90;;;;;;4978051;28;20462;-66
2020/12/28 13:46:29;;;;;;;1.80;1.70;;;6.40;99.90;;;;;;4978174;28;20934;-66
2020/12/28 13:48:55;;;;;;;1.30;1.30;;;6.30;99.90;;;;;;4978145;28;20527;-66
2020/12/28 13:51:22;;;;;;;1.50;1.40;;;6.40;99.90;;;;;;4978001;28;20549;-66
2020/12/28 13:53:49;;;;;;;3.00;1.30;;;6.30;99.90;;;;;;4977470;28;20458;-66
2020/12/28 13:56:16;;;;;;;1.40;1.30;;;6.30;99.90;;;;;;4977882;28;20494;-65
2020/12/28 13:58:42;;;;;;;1.87;1.30;;;6.30;99.90;;;;;;4977791;28;20466;-65
2020/12/28 14:01:10;;;;;;;0.97;0.97;;;6.60;99.90;;;;;;4977795;28;20486;-65
2020/12/28 14:03:38;;;;;;;0.97;0.97;;;6.90;99.90;;;;;;4977833;28;20482;-65
2020/12/28 14:06:07;;;;;;;1.70;1.60;;;6.90;99.90;;;;;;4977941;28;20454;-66
2020/12/28 14:08:34;;;;;;;1.47;1.13;;;6.90;99.90;;;;;;4977549;28;20545;-66
2020/12/28 14:11:00;;;;;;;1.27;1.20;;;6.80;99.90;;;;;;4977735;28;20597;-67
2020/12/28 14:13:27;;;;;;;1.30;1.20;;;6.70;99.90;;;;;;4977662;28;20455;-68
2020/12/28 14:15:53;;;;;;;1.37;1.27;;;6.70;99.90;;;;;;4977525;28;20478;-67
2020/12/28 14:18:19;;;;;;;0.93;0.93;;;6.50;99.90;;;;;;4977429;28;20462;-67
2020/12/28 14:20:46;;;;;;;1.27;1.20;;;6.40;99.90;;;;;;4977581;28;20475;-66
2020/12/28 14:23:12;;;;;;;1.67;1.57;;;6.30;99.90;;;;;;4977344;28;20455;-67
2020/12/28 14:25:38;;;;;;;1.00;1.00;;;6.30;99.90;;;;;;4977345;28;20451;-67
2020/12/28 14:28:04;;;;;;;0.90;0.90;;;6.30;99.90;;;;;;4977180;28;20477;-67
2020/12/28 14:30:31;;;;;;;1.20;1.20;;;6.20;99.90;;;;;;4980184;28;20592;-67
2020/12/28 14:32:57;;;;;;;1.17;1.17;;;6.10;99.90;;;;;;4977027;28;20454;-67
2020/12/28 14:35:23;;;;;;;1.23;1.23;;;6.10;99.90;;;;;;4976905;28;20467;-67
2020/12/28 14:37:50;;;;;;;1.00;1.00;;;6.10;99.90;;;;;;4977124;28;20513;-67
2020/12/28 14:40:16;;;;;;;1.20;1.20;;;6.10;99.90;;;;;;4977186;28;20462;-67
2020/12/28 14:42:42;;;;;;;0.93;0.93;;;6.00;99.90;;;;;;4975452;28;20455;-67
2020/12/28 14:45:09;;;;;;;1.10;1.10;;;6.00;99.90;;;;;;4977112;28;20922;-67
2020/12/28 14:47:35;;;;;;;1.00;1.00;;;5.90;99.90;;;;;;4977194;28;20513;-67
2020/12/28 14:50:01;;;;;;;1.53;1.43;;;5.80;99.90;;;;;;4976657;28;20949;-67
2020/12/28 14:52:28;;;;;;;0.97;0.97;;;5.80;99.90;;;;;;4976920;28;20486;-67
2020/12/28 14:54:55;;;;;;;1.40;1.00;;;5.80;99.90;;;;;;4976837;28;20533;-65
2020/12/28 14:57:21;;;;;;;1.07;1.07;;;5.70;99.90;;;;;;4976735;28;20486;-67
2020/12/28 14:59:47;;;;;;;1.00;1.00;;;5.70;99.90;;;;;;4976667;28;20458;-66
2020/12/28 15:02:15;;;;;;;1.00;1.00;;;5.80;99.90;;;;;;4976428;28;20478;-67
2020/12/28 15:04:42;;;;;;;1.10;1.10;;;5.80;99.90;;;;;;4976645;28;20435;-67
2020/12/28 15:07:10;;;;;;;1.33;1.30;;;5.80;99.90;;;;;;4976279;28;20968;-67
2020/12/28 15:09:36;;;;;;;1.60;1.30;;;5.80;99.90;;;;;;4976843;28;20879;-67
2020/12/28 15:12:03;;;;;;;1.30;1.30;;;5.70;99.90;;;;;;4976346;28;20474;-66
2020/12/28 15:14:29;;;;;;;0.93;0.93;;;5.70;99.90;;;;;;4976154;28;20828;-67
2020/12/28 15:16:56;;;;;;;2.30;1.07;;;5.60;99.90;;;;;;4976353;28;20461;-66
2020/12/28 15:19:22;;;;;;;1.17;1.10;;;5.50;99.90;;;;;;4976349;28;20478;-67
2020/12/28 15:21:48;;;;;;;0.90;0.90;;;5.50;99.90;;;;;;4976141;28;20479;-67
2020/12/28 15:24:14;;;;;;;1.10;1.10;;;5.60;99.90;;;;;;4976110;28;20451;-67
2020/12/28 15:26:41;;;;;;;1.03;1.03;;;5.50;99.90;;;;;;4975844;28;20946;-67
2020/12/28 15:29:08;;;;;;;0.90;0.90;;;5.60;99.90;;;;;;4976123;28;20466;-67
2020/12/28 15:31:34;;;;;;;2.17;1.00;;;5.60;99.90;;;;;;4975843;28;20478;-67
2020/12/28 15:34:00;;;;;;;1.00;1.00;;;5.70;99.90;;;;;;4976812;28;20776;-67
2020/12/28 15:36:26;;;;;;;1.17;1.17;;;5.70;99.90;;;;;;4976064;28;20450;-67
2020/12/28 15:38:53;;;;;;;1.30;1.30;;;5.70;99.90;;;;;;4977041;28;20458;-66
2020/12/28 15:41:19;;;;;;;2.93;2.73;;;5.70;99.90;;;;;;4976261;28;20482;-67
2020/12/28 15:43:45;;;;;;;0.97;0.97;;;5.70;99.90;;;;;;4976897;28;20530;-68
2020/12/28 15:46:12;;;;;;;1.00;1.00;;;5.70;99.90;;;;;;4976130;28;20454;-67
2020/12/28 15:48:38;;;;;;;0.90;0.90;;;5.70;99.90;;;;;;4975709;28;20459;-67
2020/12/28 15:51:04;;;;;;;1.10;1.10;;;5.70;99.90;;;;;;4975895;28;20541;-66
2020/12/28 15:53:31;;;;;;;1.00;1.00;;;5.60;99.90;;;;;;4975649;28;20454;-66
2020/12/28 15:55:57;;;;;;;1.50;1.23;;;5.60;99.90;;;;;;4975553;28;20832;-68
2020/12/28 15:58:23;;;;;;;1.47;1.10;;;5.70;99.90;;;;;;4975908;28;20455;-66
2020/12/28 16:00:49;;;;;;;1.00;1.00;;;5.60;99.90;;;;;;4975549;28;20490;-66
2020/12/28 16:03:19;;;;;;;1.10;1.10;;;5.60;99.90;;;;;;4975463;28;20937;-66
2020/12/28 16:05:50;;;;;;;0.80;0.80;;;5.60;99.90;;;;;;4975951;28;20458;-66
2020/12/28 16:08:16;;;;;;;0.70;0.70;;;5.60;99.90;;;;;;4975530;28;20474;-67
2020/12/28 16:10:43;;;;;;;1.23;1.13;;;5.50;99.90;;;;;;4975389;28;20474;-66
2020/12/28 16:13:10;;;;;;;0.83;0.83;;;5.70;99.90;;;;;;4975546;28;20511;-66
2020/12/28 16:15:36;;;;;;;1.23;1.00;;;5.60;99.90;;;;;;4975392;28;20482;-66
2020/12/28 16:18:03;;;;;;;0.90;0.90;;;5.60;99.90;;;;;;4975882;28;20455;-66
2020/12/28 16:20:30;;;;;;;0.80;0.80;;;5.50;99.90;;;;;;4975130;28;20980;-66
2020/12/28 16:22:56;;;;;;;1.90;1.10;;;5.50;99.90;;;;;;4974881;28;20458;-66
2020/12/28 16:25:22;;;;;;;1.40;1.10;;;5.50;99.90;;;;;;4975053;28;20455;-66
2020/12/28 16:27:49;;;;;;;1.10;1.10;;;5.50;99.90;;;;;;4989125;23;20490;-61
2020/12/28 16:30:15;;;;;;;1.20;1.10;;;5.50;99.90;;;;;;4974918;28;20459;-61
2020/12/28 16:32:41;;;;;;;1.47;1.37;;;5.60;99.90;;;;;;4975302;28;20455;-59
2020/12/28 16:35:08;;;;;;;1.20;1.10;;;5.60;99.90;;;;;;4975163;28;20478;-59
2020/12/28 16:37:36;;;;;;;1.67;1.57;;;5.60;99.90;;;;;;4975125;28;20474;-59
2020/12/28 16:40:02;;;;;;;1.10;1.03;;;5.70;99.90;;;;;;4975115;28;20512;-60
2020/12/28 16:42:28;;;;;;;1.37;1.33;;;5.70;99.90;;;;;;4975263;28;20457;-59
2020/12/28 16:44:55;;;;;;;2.43;2.23;;;5.60;99.90;;;;;;4975613;28;20442;-60
2020/12/28 16:47:21;;;;;;;2.80;1.80;;;5.60;99.90;;;;;;4976643;28;20478;-60
2020/12/28 16:49:47;;;;;;;1.23;1.23;;;5.60;99.90;;;;;;4977195;28;20466;-60
2020/12/28 16:52:13;;;;;;;1.63;1.53;;;5.60;99.90;;;;;;4976356;28;20466;-61
2020/12/28 16:54:40;;;;;;;2.70;2.50;;;5.50;99.90;;;;;;4975557;28;20918;-61
2020/12/28 16:57:06;;;;;;;1.70;1.57;;;5.60;99.90;;;;;;4975417;28;20471;-59
2020/12/28 16:59:33;;;;;;;2.60;2.40;;;5.60;99.90;;;;;;4975943;28;20465;-59
2020/12/28 17:02:00;;;;;;;2.83;2.20;;;5.70;99.90;;;;;;4976042;28;20465;-59
2020/12/28 17:04:27;;;;;;;2.80;2.60;;;5.70;99.90;;;;;;4975590;28;20458;-61
2020/12/28 17:06:56;;;;;;;2.60;2.50;;;5.80;99.90;;;;;;4979082;28;20453;-60
2020/12/28 17:09:22;;;;;;;3.17;2.60;;;5.80;99.90;;;;;;4979671;28;20474;-59
2020/12/28 17:11:50;;;;;;;1.57;1.57;;;5.80;99.90;;;;;;4978723;28;20454;-59
2020/12/28 17:14:17;;;;;;;1.50;1.40;;;5.70;99.90;;;;;;4978584;28;20481;-59
2020/12/28 17:16:45;;;;;;;2.50;2.40;;;5.60;99.90;;;;;;4978941;28;20458;-59
2020/12/28 17:19:12;;;;;;;1.90;1.80;;;5.60;99.90;;;;;;4978852;28;20462;-61
2020/12/28 17:21:38;;;;;;;1.60;1.50;;;5.50;99.90;;;;;;4978849;28;20455;-60
2020/12/28 17:24:05;;;;;;;1.60;1.50;;;5.40;99.90;;;;;;4979072;28;20490;-60
2020/12/28 17:26:32;;;;;;;1.67;1.57;;;5.40;99.90;;;;;;4978665;28;20458;-59
2020/12/28 17:28:59;;;;;;;11.90;8.03;;;5.30;99.90;;;;;;4978745;28;20489;-59
2020/12/28 17:31:25;;;;;;;1.63;1.53;;;5.30;99.90;;;;;;4979287;28;20454;-59
2020/12/28 17:33:51;;;;;;;2.10;1.97;;;5.30;99.90;;;;;;4979254;28;20466;-59
2020/12/28 17:36:17;;;;;;;1.30;1.30;;;5.30;99.90;;;;;;4978740;28;20482;-60
2020/12/28 17:38:43;;;;;;;2.13;2.03;;;5.20;99.90;;;;;;4978878;28;20479;-60
2020/12/28 17:41:10;;;;;;;1.50;1.40;;;5.20;99.90;;;;;;4978670;28;20455;-60
2020/12/28 17:43:39;;;;;;;1.30;1.30;;;5.20;99.90;;;;;;4979058;28;20459;-59
2020/12/28 17:46:06;;;;;;;1.57;1.43;;;5.10;99.90;;;;;;4978406;28;20438;-63
2020/12/28 17:48:32;;;;;;;1.67;1.57;;;5.00;99.90;;;;;;4978635;28;20481;-61
2020/12/28 17:50:58;;;;;;;1.80;1.63;;;5.10;99.90;;;;;;4979172;28;20454;-61
2020/12/28 17:53:24;;;;;;;1.60;1.33;;;5.10;99.90;;;;;;4978689;28;20461;-60
2020/12/28 17:55:50;;;;;;;3.93;1.33;;;5.10;99.90;;;;;;4979332;28;20475;-61
2020/12/28 17:58:16;;;;;;;2.30;1.33;;;5.10;99.90;;;;;;4978870;28;20478;-60